Terminal Aerodrome Forecast
Issued by NWS

Current Version | Previous Version | Text Only | Print | Product List | Glossary On
Versions: 1 2 3 4 5 6 7 8 9 10 11 12 13 14
000
FTUS44 KEPZ 220500
TAFLRU
TAF
KLRU 220526Z 2206/2306 24010KT P6SM VCTS BKN080CB BKN140
      TEMPO 2208/2212 P6SM -TSRA SCT060CB
     FM221200 20011KT P6SM VCSH FEW015 BKN040 OVC070
      TEMPO 2212/2215 6SM -SHRA
     FM221900 28006KT P6SM VCSH SCT040 BKN070 OVC110
     FM230000 22008KT P6SM FEW050 SCT080 OVC110=

USA.gov is the U.S. government's official web portal to all federal, state and local government web resources and services.